Time;durP1;ratioP1;P1;durP2;ratioP2;P2;SDS_P1;SDS_P2;PMS_P1;PMS_P2;Temp;Humidity;BMP_temperature;BMP_pressure;BME280_temperature;BME280_humidity;BME280_pressure;Samples;Min_cycle;Max_cycle;Signal;HPM_P1;HPM_P2
2022/05/20 00:01:58;;;;;;;3.95;2.53;;;;;;;13.50;60.48;100662.06;6246699;22;20514;-80
2022/05/20 00:04:24;;;;;;;5.97;2.72;;;;;;;13.51;60.53;100661.59;6274643;22;20026;-79
2022/05/20 00:06:49;;;;;;;3.85;2.08;;;;;;;13.43;60.57;100657.44;6274758;22;20016;-79
2022/05/20 00:09:15;;;;;;;4.07;2.22;;;;;;;13.43;60.81;100656.66;6247578;22;20460;-79
2022/05/20 00:11:40;;;;;;;5.18;2.30;;;;;;;13.44;60.77;100659.00;6274657;22;20008;-79
2022/05/20 00:14:06;;;;;;;3.28;2.30;;;;;;;13.46;61.02;100650.22;6274885;22;20367;-79
2022/05/20 00:16:35;;;;;;;3.25;2.30;;;;;;;13.41;60.60;100653.53;6246661;22;20016;-79
2022/05/20 00:19:05;;;;;;;3.08;2.13;;;;;;;13.38;60.58;100660.78;6274480;22;20012;-79
2022/05/20 00:21:31;;;;;;;5.72;2.55;;;;;;;13.36;60.03;100652.09;6275079;22;20035;-79
2022/05/20 00:23:57;;;;;;;4.55;2.42;;;;;;;13.31;60.64;100638.69;6274404;22;20061;-79
2022/05/20 00:26:24;;;;;;;4.75;2.35;;;;;;;13.26;60.64;100639.25;6246750;22;20353;-79
2022/05/20 00:28:49;;;;;;;4.78;2.67;;;;;;;13.28;61.99;100655.50;6274899;22;20003;-79
2022/05/20 00:31:16;;;;;;;3.28;2.40;;;;;;;13.21;62.52;100655.72;6274667;22;20052;-79
2022/05/20 00:33:42;;;;;;;4.85;2.63;;;;;;;13.18;62.93;100649.03;6248266;22;20006;-79
2022/05/20 00:36:08;;;;;;;5.38;2.63;;;;;;;13.04;63.87;100641.78;6274402;22;20087;-79
2022/05/20 00:38:34;;;;;;;5.22;2.83;;;;;;;12.95;64.97;100652.78;6274333;22;20019;-79
2022/05/20 00:41:00;;;;;;;3.67;2.65;;;;;;;12.88;65.67;100650.19;6273873;22;20071;-79
2022/05/20 00:43:26;;;;;;;3.90;2.65;;;;;;;12.86;66.17;100652.63;6274456;22;20046;-79
2022/05/20 00:46:13;;;;;;;6.38;2.90;;;;;;;12.80;66.72;100659.94;6275063;22;20019;-79
2022/05/20 00:48:39;;;;;;;4.53;2.40;;;;;;;12.77;66.69;100660.03;6245673;22;20012;-80
2022/05/20 00:51:22;;;;;;;6.20;2.60;;;;;;;12.79;66.06;100657.59;6247109;22;20042;-80
2022/05/20 00:54:02;;;;;;;3.67;2.58;;;;;;;12.71;66.55;100650.63;6275028;22;20073;-80
2022/05/20 00:56:34;;;;;;;5.05;2.63;;;;;;;12.76;66.32;100653.69;6247966;22;20384;-80
2022/05/20 00:58:59;;;;;;;4.13;2.55;;;;;;;12.69;66.70;100647.53;6274044;22;20007;-80
2022/05/20 01:01:26;;;;;;;4.90;2.83;;;;;;;12.70;67.46;100643.53;6246255;22;20011;-80
2022/05/20 01:03:53;;;;;;;3.70;2.47;;;;;;;12.61;68.06;100644.16;6273758;22;20039;-80
2022/05/20 01:06:18;;;;;;;4.18;2.88;;;;;;;12.49;68.08;100637.28;6246159;22;20022;-80
2022/05/20 01:08:44;;;;;;;5.78;3.10;;;;;;;12.47;67.53;100631.34;6274005;22;20386;-81
2022/05/20 01:11:09;;;;;;;3.97;2.92;;;;;;;12.41;66.85;100621.19;6245771;22;20019;-87
2022/05/20 01:13:35;;;;;;;3.65;2.60;;;;;;;12.44;66.89;100620.31;6273459;22;20046;-86
2022/05/20 01:16:02;;;;;;;3.95;2.50;;;;;;;12.49;66.66;100628.16;6273925;22;20007;-87
2022/05/20 01:18:29;;;;;;;5.25;2.83;;;;;;;12.52;66.45;100627.28;6246817;22;20039;-87
2022/05/20 01:20:56;;;;;;;4.90;2.78;;;;;;;12.53;66.48;100612.94;6247830;22;20035;-87
2022/05/20 01:23:24;;;;;;;6.00;2.50;;;;;;;12.56;66.10;100623.19;6273058;22;20012;-87
2022/05/20 01:25:56;;;;;;;5.05;2.70;;;;;;;12.55;65.94;100621.59;6247065;22;20069;-87
2022/05/20 01:28:24;;;;;;;5.20;2.80;;;;;;;12.46;66.20;100624.22;6273970;22;20018;-87
2022/05/20 01:30:53;;;;;;;6.07;3.00;;;;;;;12.31;66.25;100616.66;6247437;22;20034;-87
2022/05/20 01:33:23;;;;;;;4.10;2.80;;;;;;;12.28;66.88;100621.09;6246473;22;20210;-87
2022/05/20 01:35:48;;;;;;;4.90;2.40;;;;;;;12.23;66.08;100607.72;6220415;22;20034;-87
2022/05/20 01:38:14;;;;;;;4.00;2.50;;;;;;;12.25;66.12;100619.19;6273304;22;20094;-87
2022/05/20 01:40:49;;;;;;;3.95;2.83;;;;;;;12.21;65.96;100606.59;6273653;22;20012;-86
2022/05/20 01:43:42;;;;;;;6.90;3.03;;;;;;;12.33;65.89;100617.03;6272999;22;20015;-87
2022/05/20 01:46:25;;;;;;;4.20;2.73;;;;;;;12.30;66.46;100606.75;6273652;22;20524;-87
2022/05/20 01:49:19;;;;;;;4.00;2.72;;;;;;;12.29;66.21;100608.00;6246855;22;20046;-87
2022/05/20 01:52:16;;;;;;;4.20;2.63;;;;;;;12.28;67.03;100606.41;6273468;22;20455;-87
2022/05/20 01:55:03;;;;;;;4.88;2.58;;;;;;;12.15;67.24;100609.88;6268565;22;20051;-87
2022/05/20 01:57:37;;;;;;;3.70;2.40;;;;;;;12.09;67.59;100606.03;6246768;22;20046;-87
2022/05/20 02:00:10;;;;;;;5.47;3.00;;;;;;;12.06;67.74;100606.91;6273491;22;20011;-87
2022/05/20 02:02:50;;;;;;;3.75;2.50;;;;;;;12.01;68.68;100603.91;6246539;22;20015;-85
2022/05/20 02:05:26;;;;;;;5.00;2.88;;;;;;;12.02;67.93;100614.56;6245698;22;20016;-87
2022/05/20 02:07:55;;;;;;;6.05;2.95;;;;;;;12.08;68.15;100610.06;6245931;22;20018;-86
2022/05/20 02:10:27;;;;;;;5.38;2.50;;;;;;;12.06;68.72;100612.47;6221331;22;20335;-87
2022/05/20 02:12:57;;;;;;;5.47;3.10;;;;;;;12.09;68.23;100600.47;6245824;22;20043;-86
2022/05/20 02:15:30;;;;;;;4.88;2.85;;;;;;;12.02;70.02;100583.97;6273093;22;20007;-87
2022/05/20 02:17:58;;;;;;;;;;;;;;;12.06;70.11;100593.03;6247169;22;20018;-87
2022/05/20 02:20:43;;;;;;;5.78;3.10;;;;;;;12.09;69.88;100577.47;6246178;22;19911;-86
2022/05/20 02:23:31;;;;;;;3.50;2.58;;;;;;;12.09;69.83;100583.03;6246055;22;20007;-87
2022/05/20 02:26:03;;;;;;;4.28;2.80;;;;;;;12.11;71.33;100598.06;6272557;22;20047;-79
2022/05/20 02:29:02;;;;;;;4.55;2.85;;;;;;;12.04;71.07;100594.69;6246085;22;20446;-87
2022/05/20 02:31:35;;;;;;;5.25;2.80;;;;;;;12.10;70.51;100592.94;6218332;22;20505;-87
2022/05/20 02:34:01;;;;;;;5.00;2.85;;;;;;;12.09;70.23;100594.94;6272329;22;20070;-87
2022/05/20 02:36:32;;;;;;;4.47;2.67;;;;;;;12.13;70.24;100601.19;6273551;22;20438;-87
2022/05/20 02:38:58;;;;;;;4.28;2.47;;;;;;;12.21;70.04;100606.59;6273399;22;20388;-86
2022/05/20 02:41:24;;;;;;;5.57;3.00;;;;;;;12.23;70.39;100604.16;6272968;22;20022;-87
2022/05/20 02:43:49;;;;;;;5.45;3.38;;;;;;;12.14;71.02;100616.66;6244958;22;20035;-86
2022/05/20 02:46:15;;;;;;;4.25;2.85;;;;;;;12.11;69.92;100614.75;6272793;22;20050;-88
2022/05/20 02:48:40;;;;;;;4.65;2.72;;;;;;;12.10;69.78;100613.19;6246047;22;20092;-87
2022/05/20 02:51:06;;;;;;;6.10;3.20;;;;;;;12.13;69.55;100612.31;6272334;22;20011;-87
2022/05/20 02:53:32;;;;;;;4.60;2.60;;;;;;;12.09;69.47;100616.41;6272422;22;20012;-87
2022/05/20 02:55:59;;;;;;;4.15;2.92;;;;;;;12.07;70.60;100608.50;6273573;22;20082;-86
2022/05/20 03:04:11;;;;;;;4.45;2.70;;;;;;;12.17;69.31;100609.47;6272899;22;20011;-87
2022/05/20 03:06:42;;;;;;;5.45;2.80;;;;;;;12.14;69.30;100599.97;6273625;22;20434;-87
2022/05/20 03:09:09;;;;;;;5.10;2.95;;;;;;;12.12;69.21;100613.53;6273306;22;20012;-86
2022/05/20 03:11:35;;;;;;;4.10;2.63;;;;;;;12.02;69.93;100600.66;6272890;22;20639;-87
2022/05/20 03:14:03;;;;;;;4.32;2.90;;;;;;;12.05;70.12;100594.22;6272358;22;20038;-87
2022/05/20 03:16:30;;;;;;;5.32;3.05;;;;;;;12.13;69.64;100603.97;6246671;22;20058;-86
2022/05/20 03:18:55;;;;;;;4.15;2.53;;;;;;;12.14;69.82;100607.53;6272596;22;20012;-86
2022/05/20 03:21:21;;;;;;;5.75;2.80;;;;;;;12.13;69.01;100594.88;6273363;22;20090;-87
2022/05/20 03:23:46;;;;;;;11.00;3.15;;;;;;;12.15;68.37;100601.53;6273557;22;20012;-87
2022/05/20 03:26:12;;;;;;;3.45;2.67;;;;;;;12.23;68.50;100599.38;6274740;22;20433;-86
2022/05/20 03:28:39;;;;;;;4.28;2.67;;;;;;;12.24;69.32;100600.94;6248357;22;20069;-87
2022/05/20 03:31:09;;;;;;;4.43;2.80;;;;;;;12.26;68.66;100581.03;6274729;22;20463;-87
2022/05/20 03:33:36;;;;;;;4.25;2.95;;;;;;;12.28;69.53;100601.63;6248508;22;20012;-87
2022/05/20 03:36:03;;;;;;;5.78;2.80;;;;;;;12.31;69.17;100606.31;6275035;22;20030;-86
2022/05/20 03:38:29;;;;;;;4.53;2.90;;;;;;;12.31;68.31;100616.66;6274568;22;20012;-87
2022/05/20 03:40:55;;;;;;;4.43;3.00;;;;;;;12.30;68.66;100615.88;6275497;22;20370;-85
2022/05/20 03:43:20;;;;;;;4.25;2.95;;;;;;;12.31;68.64;100597.97;6244159;22;20000;-87
2022/05/20 03:45:46;;;;;;;5.45;3.28;;;;;;;12.28;68.07;100606.41;6273776;22;20007;-87
2022/05/20 03:48:11;;;;;;;4.43;3.33;;;;;;;12.24;68.60;100605.72;6270145;22;20008;-87
2022/05/20 03:50:37;;;;;;;4.93;3.00;;;;;;;12.33;68.77;100617.03;6272702;22;20087;-84
2022/05/20 03:53:03;;;;;;;10.23;3.67;;;;;;;12.47;70.57;100628.56;6243577;22;20023;-84
2022/05/20 03:55:29;;;;;;;8.85;3.42;;;;;;;12.52;69.89;100628.06;6245750;22;20004;-84
2022/05/20 03:57:55;;;;;;;6.60;3.45;;;;;;;12.58;69.60;100642.22;6244511;22;20020;-84
2022/05/20 04:00:21;;;;;;;5.03;2.75;;;;;;;12.60;69.03;100646.13;6272764;22;20307;-85
2022/05/20 04:02:46;;;;;;;4.47;3.00;;;;;;;12.70;68.35;100660.22;6271879;22;20080;-83
2022/05/20 04:05:12;;;;;;;7.38;3.05;;;;;;;12.74;67.22;100647.75;6245264;22;20438;-85
2022/05/20 04:07:40;;;;;;;7.70;3.38;;;;;;;12.81;67.68;100650.38;6273448;22;20095;-85
2022/05/20 04:10:07;;;;;;;7.95;3.50;;;;;;;12.84;67.31;100638.38;6270949;22;20015;-85
2022/05/20 04:12:40;;;;;;;5.90;3.50;;;;;;;12.86;66.92;100635.91;6272267;22;20303;-85
2022/05/20 04:15:10;;;;;;;5.28;3.10;;;;;;;12.92;67.05;100634.16;6271585;22;20077;-85
2022/05/20 04:17:36;;;;;;;5.35;3.15;;;;;;;12.92;66.57;100627.81;6272229;22;20454;-85
2022/05/20 04:20:03;;;;;;;4.40;2.80;;;;;;;12.84;66.01;100624.44;6244534;22;20011;-86
2022/05/20 04:22:31;;;;;;;5.50;2.88;;;;;;;12.89;66.53;100631.47;6244907;22;20079;-86
2022/05/20 04:24:57;;;;;;;4.25;2.97;;;;;;;12.92;64.97;100655.66;6244231;22;20016;-86
2022/05/20 04:27:23;;;;;;;4.90;3.10;;;;;;;12.89;65.94;100662.91;6272012;22;20346;-85
2022/05/20 04:29:49;;;;;;;4.65;3.00;;;;;;;12.94;64.11;100656.00;6271903;22;20050;-86
2022/05/20 04:32:16;;;;;;;3.92;3.17;;;;;;;13.04;63.46;100657.72;6271403;22;20019;-86
2022/05/20 04:34:41;;;;;;;5.75;3.40;;;;;;;13.14;63.96;100678.97;6244973;22;20079;-85
2022/05/20 04:37:07;;;;;;;5.72;3.38;;;;;;;13.23;63.01;100681.09;6271870;22;20054;-87
2022/05/20 04:39:34;;;;;;;5.28;3.17;;;;;;;13.31;63.58;100665.75;6271253;22;20012;-87
2022/05/20 04:47:28;;;;;;;;;;;;;;;13.31;63.49;100660.19;6271869;22;20019;-89
2022/05/20 04:49:54;;;;;;;6.13;3.00;;;;;;;13.36;62.26;100652.09;6271104;22;19970;-88
2022/05/20 04:52:20;;;;;;;7.38;2.85;;;;;;;13.46;62.53;100651.00;6270938;22;20012;-88
2022/05/20 04:54:55;;;;;;;4.15;2.80;;;;;;;13.45;62.04;100643.88;6271420;22;20003;-89
2022/05/20 04:57:20;;;;;;;6.93;2.80;;;;;;;13.51;62.06;100652.44;6243371;22;20438;-88
2022/05/20 04:59:46;;;;;;;6.68;3.10;;;;;;;13.48;62.09;100653.34;6272718;22;20010;-89
2022/05/20 05:02:13;;;;;;;7.38;3.05;;;;;;;13.56;61.63;100649.13;6269640;22;20022;-88
2022/05/20 05:04:38;;;;;;;6.28;3.33;;;;;;;13.49;61.13;100640.97;6270547;22;20011;-88
2022/05/20 05:07:09;;;;;;;6.13;3.60;;;;;;;13.35;61.40;100628.22;6266855;22;20015;-88
2022/05/20 05:09:34;;;;;;;4.88;3.28;;;;;;;13.48;61.77;100629.03;6270041;22;20019;-87
2022/05/20 05:12:00;;;;;;;5.20;3.03;;;;;;;13.57;61.44;100639.53;6272635;22;20087;-88
2022/05/20 05:14:25;;;;;;;5.20;2.95;;;;;;;13.53;61.94;100624.94;6272051;22;19999;-88
2022/05/20 05:16:51;;;;;;;4.60;2.80;;;;;;;13.55;62.23;100631.59;6246236;22;20090;-89
2022/05/20 05:19:16;;;;;;;5.68;3.20;;;;;;;13.63;63.13;100623.81;6273368;22;20006;-88
2022/05/20 05:21:42;;;;;;;6.60;3.33;;;;;;;13.68;63.24;100640.00;6274426;22;20054;-89
2022/05/20 05:24:08;;;;;;;5.95;3.20;;;;;;;13.72;63.00;100640.69;6274445;22;20339;-89
2022/05/20 05:26:35;;;;;;;6.00;3.35;;;;;;;13.75;63.18;100645.34;6273603;22;20007;-88
2022/05/20 05:29:02;;;;;;;5.70;3.28;;;;;;;13.79;63.34;100651.59;6245762;22;20489;-88
2022/05/20 05:31:28;;;;;;;5.38;3.53;;;;;;;13.73;64.16;100635.88;6245996;22;20046;-88
2022/05/20 05:33:54;;;;;;;6.47;3.38;;;;;;;13.80;64.21;100647.59;6272626;22;20024;-89
2022/05/20 05:36:19;;;;;;;5.22;3.10;;;;;;;13.94;63.78;100638.81;6273297;22;20430;-90
2022/05/20 05:38:46;;;;;;;6.03;3.33;;;;;;;14.07;63.24;100643.63;6271574;22;20079;-90
2022/05/20 05:41:12;;;;;;;7.82;3.42;;;;;;;14.15;63.27;100639.38;6270458;22;20007;-90
2022/05/20 05:43:38;;;;;;;5.85;3.55;;;;;;;14.31;62.73;100648.41;6243874;22;20015;-91
2022/05/20 05:46:04;;;;;;;5.72;3.50;;;;;;;14.53;62.51;100637.34;6271555;22;20385;-90
2022/05/20 05:48:30;;;;;;;6.32;3.92;;;;;;;14.78;62.14;100647.66;6271980;22;20000;-92
2022/05/20 05:50:56;;;;;;;8.45;3.30;;;;;;;14.97;61.12;100634.63;6274516;22;20014;-89
2022/05/20 05:53:22;;;;;;;6.47;3.72;;;;;;;15.25;60.94;100633.63;6273245;22;20022;-89
2022/05/20 05:55:53;;;;;;;6.57;3.50;;;;;;;15.42;60.11;100635.00;6245994;22;20008;-89
2022/05/20 05:58:19;;;;;;;7.18;3.45;;;;;;;15.68;59.61;100624.47;6246416;22;20011;-90
2022/05/20 06:00:44;;;;;;;6.35;3.60;;;;;;;15.70;59.34;100617.19;6274399;22;20035;-89
2022/05/20 06:03:10;;;;;;;5.28;3.35;;;;;;;15.78;58.62;100631.66;6221728;22;20012;-90
2022/05/20 06:05:36;;;;;;;7.28;3.60;;;;;;;15.96;59.52;100637.38;6247016;22;20018;-90
2022/05/20 06:08:02;;;;;;;6.70;3.50;;;;;;;16.16;58.41;100643.34;6274224;22;20430;-90
2022/05/20 06:10:28;;;;;;;6.55;3.13;;;;;;;16.33;58.51;100650.25;6274115;22;20085;-89
2022/05/20 06:12:57;;;;;;;8.10;3.25;;;;;;;16.33;57.38;100644.66;6247205;22;20590;-90
2022/05/20 06:15:23;;;;;;;6.03;3.13;;;;;;;16.55;57.32;100647.34;6274035;22;20011;-90
2022/05/20 06:17:53;;;;;;;6.88;3.20;;;;;;;16.68;57.39;100634.03;6246204;22;20038;-93
2022/05/20 06:20:20;;;;;;;5.18;3.65;;;;;;;16.88;56.07;100630.00;6244719;22;20015;-93
2022/05/20 06:22:46;;;;;;;5.63;3.40;;;;;;;16.87;55.09;100631.22;6246316;22;20455;-92
2022/05/20 06:25:12;;;;;;;8.35;3.50;;;;;;;17.27;55.47;100637.47;6274179;22;20034;-91
2022/05/20 06:27:37;;;;;;;4.88;2.90;;;;;;;17.52;55.33;100631.50;6272419;22;20088;-91
2022/05/20 06:30:06;;;;;;;5.60;3.50;;;;;;;17.96;55.67;100640.31;6273800;22;20011;-95
2022/05/20 06:32:32;;;;;;;5.53;3.15;;;;;;;18.30;54.17;100639.06;6271755;22;19999;-93
2022/05/20 06:40:35;;;;;;;7.47;3.55;;;;;;;18.57;49.99;100649.41;6250279;22;20404;-92
2022/05/20 06:43:01;;;;;;;4.93;3.10;;;;;;;18.83;50.64;100646.91;6246320;22;20012;-92
2022/05/20 06:45:30;;;;;;;10.40;3.83;;;;;;;19.08;50.58;100647.19;6273904;22;20003;-91
2022/05/20 06:47:55;;;;;;;8.57;3.65;;;;;;;19.14;49.11;100652.13;6248386;22;20039;-92
2022/05/20 06:50:21;;;;;;;7.85;3.13;;;;;;;19.46;47.95;100646.41;6273327;22;20012;-92
2022/05/20 06:52:46;;;;;;;5.05;3.20;;;;;;;19.32;47.50;100633.06;6248224;22;20582;-89
2022/05/20 06:55:12;;;;;;;6.18;3.45;;;;;;;19.68;47.74;100656.50;6274261;22;20006;-89
2022/05/20 06:57:40;;;;;;;8.80;3.33;;;;;;;19.77;47.12;100639.53;6274149;22;20425;-89
2022/05/20 07:00:08;;;;;;;6.03;3.28;;;;;;;19.99;48.13;100662.41;6276302;22;20023;-89
2022/05/20 07:02:33;;;;;;;7.82;2.90;;;;;;;20.26;46.63;100650.81;6248158;22;20018;-90
2022/05/20 07:05:03;;;;;;;5.80;3.10;;;;;;;20.25;46.03;100642.84;6248302;22;20323;-90
2022/05/20 07:07:29;;;;;;;4.10;2.90;;;;;;;20.30;45.78;100661.91;6275729;22;20019;-89
2022/05/20 07:09:54;;;;;;;4.40;2.80;;;;;;;20.08;47.02;100664.34;6275782;22;20012;-88
2022/05/20 07:12:20;;;;;;;5.25;3.17;;;;;;;20.25;46.97;100654.91;6275895;22;20046;-89
2022/05/20 07:14:45;;;;;;;5.72;3.65;;;;;;;20.42;46.79;100658.75;6248820;22;20012;-89
2022/05/20 07:17:16;;;;;;;8.25;3.28;;;;;;;20.75;46.56;100652.03;6249013;22;20350;-89
2022/05/20 07:19:41;;;;;;;6.68;3.03;;;;;;;21.06;46.09;100666.28;6275719;22;20012;-89
2022/05/20 07:22:08;;;;;;;7.00;3.28;;;;;;;21.09;45.04;100653.25;6275906;22;20014;-89
2022/05/20 07:24:33;;;;;;;5.85;3.40;;;;;;;21.06;44.89;100655.00;6275420;22;20012;-89
2022/05/20 07:26:59;;;;;;;5.10;3.25;;;;;;;21.20;44.71;100648.53;6275729;22;20478;-89
2022/05/20 07:29:24;;;;;;;4.78;3.40;;;;;;;21.59;44.73;100651.00;6275390;22;20007;-89
2022/05/20 07:31:50;;;;;;;5.28;3.15;;;;;;;21.84;43.66;100659.44;6275978;22;20308;-89
2022/05/20 07:34:15;;;;;;;7.65;3.13;;;;;;;22.15;43.74;100655.09;6275371;22;20354;-88
2022/05/20 07:36:41;;;;;;;5.55;3.30;;;;;;;22.43;43.72;100660.94;6275588;22;20014;-90
2022/05/20 07:39:08;;;;;;;6.95;3.10;;;;;;;22.27;44.04;100654.69;6275567;22;20404;-89
2022/05/20 07:41:35;;;;;;;3.88;3.20;;;;;;;22.05;44.07;100648.84;6248691;22;20012;-89
2022/05/20 07:44:01;;;;;;;8.77;3.58;;;;;;;22.17;44.49;100656.13;6275432;22;20071;-89
2022/05/20 07:46:28;;;;;;;4.35;3.20;;;;;;;22.09;43.68;100643.75;6248027;22;20417;-89
2022/05/20 07:48:53;;;;;;;5.60;3.25;;;;;;;22.37;44.15;100640.34;6275365;22;20014;-89
2022/05/20 07:51:21;;;;;;;6.78;3.20;;;;;;;22.51;43.66;100647.88;6275567;22;20012;-90
2022/05/20 07:53:52;;;;;;;7.80;3.40;;;;;;;22.82;43.89;100656.31;6275700;22;20014;-89
2022/05/20 07:56:23;;;;;;;5.45;3.10;;;;;;;22.96;43.67;100651.75;6275848;22;20022;-90
2022/05/20 07:59:27;;;;;;;4.00;3.10;;;;;;;22.82;44.00;100650.66;6248143;22;20057;-90
2022/05/20 08:01:54;;;;;;;4.35;3.30;;;;;;;23.06;43.10;100644.56;6198210;22;20071;-90
2022/05/20 08:07:09;;;;;;;5.32;3.25;;;;;;;23.23;42.32;100643.34;6252681;22;20039;-90
2022/05/20 08:09:34;;;;;;;7.43;3.47;;;;;;;23.33;43.40;100640.28;6274959;22;20012;-90
2022/05/20 08:12:00;;;;;;;4.72;3.40;;;;;;;23.47;43.54;100640.09;6275653;22;20015;-84
2022/05/20 08:14:26;;;;;;;10.30;3.50;;;;;;;23.92;43.30;100645.78;6275036;22;20444;-84
2022/05/20 08:16:53;;;;;;;49.22;7.15;;;;;;;24.30;42.18;100641.44;6275398;22;20012;-84
2022/05/20 08:19:18;;;;;;;8.73;3.80;;;;;;;24.28;40.68;100638.31;6275139;22;20454;-84
2022/05/20 08:21:44;;;;;;;5.70;3.70;;;;;;;24.46;41.01;100632.13;6248088;22;20065;-84
2022/05/20 08:24:09;;;;;;;5.78;3.60;;;;;;;24.64;40.60;100631.53;6275058;22;20438;-84
2022/05/20 08:26:35;;;;;;;8.32;3.88;;;;;;;24.79;40.83;100637.66;6275164;22;20095;-84
2022/05/20 08:29:01;;;;;;;7.75;3.50;;;;;;;24.97;40.71;100630.66;6275015;22;20000;-84
2022/05/20 08:31:27;;;;;;;5.80;4.00;;;;;;;25.27;39.66;100637.25;6248263;22;20078;-84
2022/05/20 08:33:52;;;;;;;6.90;3.70;;;;;;;25.38;39.58;100630.72;6248019;22;20008;-84
2022/05/20 08:36:19;;;;;;;5.10;3.92;;;;;;;25.52;39.54;100632.41;6275165;22;20005;-84
2022/05/20 08:38:46;;;;;;;8.05;3.80;;;;;;;25.43;39.74;100635.59;6248018;22;20148;-84
2022/05/20 08:41:24;;;;;;;8.63;3.40;;;;;;;25.69;39.18;100616.06;6275224;22;20012;-84
2022/05/20 08:43:50;;;;;;;5.57;3.67;;;;;;;25.90;38.49;100620.00;6248115;22;20008;-84
2022/05/20 08:46:17;;;;;;;5.85;3.75;;;;;;;25.86;39.01;100624.44;6222671;22;20003;-84
2022/05/20 08:48:44;;;;;;;7.65;4.20;;;;;;;26.25;38.12;100621.25;6247816;22;20012;-85
2022/05/20 08:51:10;;;;;;;6.25;3.88;;;;;;;26.42;38.43;100619.03;6248306;22;20003;-84
2022/05/20 08:53:40;;;;;;;7.30;3.35;;;;;;;26.52;37.67;100623.06;6274596;22;20081;-84
2022/05/20 08:56:10;;;;;;;9.57;3.83;;;;;;;26.74;37.31;100619.94;6275012;22;20449;-84
2022/05/20 08:58:40;;;;;;;7.18;3.53;;;;;;;26.90;36.84;100619.00;6247473;22;20484;-84
2022/05/20 09:01:08;;;;;;;8.10;3.60;;;;;;;26.72;37.09;100619.72;6247736;22;20012;-84
2022/05/20 09:03:34;;;;;;;6.13;3.28;;;;;;;26.87;37.22;100614.38;6274176;22;20465;-84
2022/05/20 09:06:11;;;;;;;11.52;3.72;;;;;;;27.08;36.50;100622.41;6247716;22;20069;-85
2022/05/20 09:08:37;;;;;;;7.85;4.05;;;;;;;27.01;36.70;100611.63;6247727;22;20027;-84
2022/05/20 09:11:05;;;;;;;10.90;4.00;;;;;;;26.58;36.95;100615.22;6274851;22;20011;-84
2022/05/20 09:16:23;;;;;;;5.43;3.50;;;;;;;26.98;38.19;100607.75;6251783;22;20337;-84
2022/05/20 09:19:02;;;;;;;5.20;3.35;;;;;;;27.24;37.80;100607.16;6247657;22;20079;-84
2022/05/20 09:21:34;;;;;;;5.53;3.53;;;;;;;27.51;37.90;100608.06;6274087;22;20022;-84
2022/05/20 09:24:03;;;;;;;6.77;3.90;;;;;;;27.73;37.37;100602.03;6274635;22;20007;-84
2022/05/20 09:26:40;;;;;;;9.55;4.00;;;;;;;27.50;37.42;100601.59;6274235;22;20015;-91
2022/05/20 09:29:11;;;;;;;5.57;3.63;;;;;;;27.71;37.51;100598.94;6274790;22;20043;-91
2022/05/20 09:31:56;;;;;;;8.07;3.65;;;;;;;27.58;37.99;100596.81;6274459;22;20737;-90
2022/05/20 09:34:24;;;;;;;5.50;3.55;;;;;;;27.89;37.82;100598.13;6274412;22;20018;-91
2022/05/20 09:36:56;;;;;;;6.22;3.78;;;;;;;28.09;36.85;100593.91;6274941;22;19999;-90
2022/05/20 09:39:27;;;;;;;7.90;3.60;;;;;;;28.28;36.63;100586.03;6222328;22;20326;-90
2022/05/20 09:41:58;;;;;;;8.70;3.85;;;;;;;28.42;35.85;100593.28;6247708;22;20008;-90
2022/05/20 09:44:32;;;;;;;6.95;3.67;;;;;;;28.32;35.78;100585.72;6274537;22;20377;-90
2022/05/20 09:47:13;;;;;;;5.20;3.90;;;;;;;28.34;35.25;100578.16;6247820;22;20016;-89
2022/05/20 09:49:52;;;;;;;7.22;3.53;;;;;;;28.43;35.44;100583.41;6222115;22;20047;-90
2022/05/20 09:52:33;;;;;;;17.92;5.15;;;;;;;28.68;35.78;100584.72;6248404;22;20016;-90
2022/05/20 09:55:06;;;;;;;6.60;3.75;;;;;;;29.10;35.60;100577.09;6247423;22;20093;-91
2022/05/20 09:57:43;;;;;;;7.25;3.75;;;;;;;29.00;35.04;100572.38;6274687;22;20414;-91
2022/05/20 10:00:20;;;;;;;7.28;4.00;;;;;;;29.15;35.91;100567.63;6247410;22;20012;-92
2022/05/20 10:03:04;;;;;;;6.90;3.65;;;;;;;29.25;35.34;100570.00;6247163;22;20008;-91
2022/05/20 10:05:49;;;;;;;9.52;3.67;;;;;;;29.51;35.03;100569.94;6274012;22;20091;-85
2022/05/20 10:08:43;;;;;;;7.85;3.78;;;;;;;29.38;34.18;100573.63;6274265;22;20388;-85
2022/05/20 10:11:16;;;;;;;6.78;4.00;;;;;;;29.25;34.88;100570.75;6247643;22;20046;-84
2022/05/20 10:13:46;;;;;;;6.50;3.80;;;;;;;29.03;35.89;100572.06;6246976;22;20016;-84
2022/05/20 10:16:26;;;;;;;6.68;4.00;;;;;;;29.20;35.31;100568.78;6274365;22;20019;-84
2022/05/20 10:19:17;;;;;;;5.53;3.67;;;;;;;29.56;35.06;100560.47;6247370;22;20016;-84
2022/05/20 10:22:05;;;;;;;8.25;4.00;;;;;;;29.62;34.20;100566.78;6221935;22;20337;-85
2022/05/20 10:24:51;;;;;;;6.53;3.50;;;;;;;29.88;34.23;100563.06;6273599;22;20082;-92
2022/05/20 10:27:31;;;;;;;5.97;3.58;;;;;;;29.88;34.60;100555.25;6274389;22;20018;-92
2022/05/20 10:33:09;;;;;;;6.13;3.78;;;;;;;29.69;34.78;100551.03;6274821;22;20008;-91
2022/05/20 10:36:09;;;;;;;7.20;4.13;;;;;;;29.98;34.72;100544.03;6222008;22;20016;-93
2022/05/20 10:38:44;;;;;;;7.03;3.80;;;;;;;30.11;33.59;100541.09;6274163;22;20016;-91
2022/05/20 10:41:17;;;;;;;8.63;3.63;;;;;;;30.15;33.35;100535.78;6274739;22;20019;-91
2022/05/20 10:50:12;;;;;;;5.22;3.90;;;;;;;30.15;33.60;100527.19;6246590;22;20027;-91
2022/05/20 10:53:15;;;;;;;7.22;4.20;;;;;;;30.05;34.18;100531.88;6274197;22;20480;-92
2022/05/20 10:56:19;;;;;;;5.30;3.42;;;;;;;30.04;34.44;100531.16;6272676;22;20012;-93
2022/05/20 10:59:03;;;;;;;9.05;3.67;;;;;;;29.86;33.87;100531.34;6225538;22;20020;-93
2022/05/20 11:01:47;;;;;;;7.57;3.83;;;;;;;29.73;34.76;100529.34;6245514;22;20346;-92
2022/05/20 11:04:30;;;;;;;7.25;3.95;;;;;;;29.91;34.04;100524.75;6271146;22;20042;-93
2022/05/20 11:07:14;;;;;;;7.13;3.90;;;;;;;30.24;33.37;100520.97;6246199;22;20090;-89
2022/05/20 11:09:43;;;;;;;7.10;3.83;;;;;;;30.47;33.63;100519.03;6244957;22;20042;-90
2022/05/20 11:12:36;;;;;;;5.40;3.78;;;;;;;30.92;34.02;100512.72;6272611;22;20011;-90
2022/05/20 11:15:29;;;;;;;7.80;3.95;;;;;;;30.99;32.03;100511.22;6180736;22;20035;-90
2022/05/20 11:18:00;;;;;;;;;;;;;;;30.56;32.38;100506.28;6220457;22;20712;-91
2022/05/20 11:20:32;;;;;;;5.78;3.95;;;;;;;30.80;31.78;100507.91;6272559;22;20026;-83
2022/05/20 11:23:33;;;;;;;6.43;4.07;;;;;;;30.84;32.69;100508.28;6272789;22;20011;-90
2022/05/20 11:26:08;;;;;;;11.15;3.70;;;;;;;31.08;32.69;100504.94;6204511;22;20503;-92
2022/05/20 11:28:49;;;;;;;7.53;3.70;;;;;;;31.34;32.59;100498.84;6245528;22;20349;-91
2022/05/20 11:31:23;;;;;;;5.07;3.75;;;;;;;31.59;31.91;100495.47;6272873;22;20043;-91
2022/05/20 11:34:01;;;;;;;6.68;3.97;;;;;;;31.75;31.67;100499.84;6244940;22;20723;-91
2022/05/20 11:36:53;;;;;;;7.05;4.00;;;;;;;31.71;31.00;100502.34;6273164;22;20054;-92
2022/05/20 11:39:48;;;;;;;4.65;3.72;;;;;;;31.74;32.35;100492.59;6272696;22;20061;-91
2022/05/20 11:42:38;;;;;;;6.25;4.00;;;;;;;31.78;31.96;100492.97;6245938;22;20008;-91
2022/05/20 11:45:25;;;;;;;6.60;3.90;;;;;;;31.44;32.24;100482.63;6274398;22;20038;-92
2022/05/20 11:47:50;;;;;;;7.10;3.85;;;;;;;31.77;31.51;100479.97;6273626;22;20015;-91
2022/05/20 11:50:34;;;;;;;7.70;4.10;;;;;;;31.91;30.88;100487.78;6275055;22;20022;-91
2022/05/20 11:53:21;;;;;;;4.88;3.75;;;;;;;31.86;30.97;100483.03;6247639;22;20012;-92
2022/05/20 11:55:55;;;;;;;6.05;3.60;;;;;;;31.69;31.12;100484.94;6275409;22;20145;-90
2022/05/20 11:58:48;;;;;;;5.93;3.70;;;;;;;31.72;32.04;100475.97;6275917;22;20042;-83
2022/05/20 12:01:14;;;;;;;4.80;3.72;;;;;;;31.87;31.59;100484.53;6217266;22;20016;-83
2022/05/20 12:06:27;;;;;;;7.63;3.70;;;;;;;31.99;30.93;100476.28;6274412;22;20038;-84
2022/05/20 12:08:56;;;;;;;5.15;3.53;;;;;;;31.77;30.89;100477.09;6246562;22;20083;-84
2022/05/20 12:11:22;;;;;;;5.40;3.65;;;;;;;31.98;30.61;100474.03;6221818;22;20016;-83
2022/05/20 12:14:01;;;;;;;5.30;4.00;;;;;;;32.19;30.21;100472.44;6273439;22;20504;-83
2022/05/20 12:16:27;;;;;;;5.03;3.88;;;;;;;32.37;31.27;100459.75;6274531;22;20091;-83
2022/05/20 12:24:33;;;;;;;4.82;3.67;;;;;;;32.23;30.07;100467.06;6250807;22;20043;-84